Terminal Aerodrome Forecast
Issued by NWS

Home | Current Version | Previous Version | Graphics & Text | Print | Product List | Glossary On
Versions: 1 2 3 4 5 6 7 8 9 10 11 12 13 14
000
FTUS43 KMPX 281720
TAFRWF
TAF
KRWF 281720Z 2818/2918 16014G22KT P6SM SCT045
     FM282100 17018G28KT P6SM FEW050 SCT200
     FM290900 20022G32KT P6SM -RA SCT020 BKN040
     FM291200 27018G28KT P6SM SCT050
     FM291400 30024G34KT P6SM SCT050=

USA.gov is the U.S. government's official web portal to all federal, state and local government web resources and services.